sensor_id;sensor_type;location;lat;lon;timestamp;pressure;altitude;pressure_sealevel;temperature;humidity
3102;BME280;1561;42.666;23.392;2023-03-14T00:01:30;95442.63;;;3.74;71.96
3102;BME280;1561;42.666;23.392;2023-03-14T00:03:56;95433.25;;;3.76;72.41
3102;BME280;1561;42.666;23.392;2023-03-14T00:06:23;95439.66;;;3.66;72.62
3102;BME280;1561;42.666;23.392;2023-03-14T00:08:50;95428.03;;;3.46;74.15
3102;BME280;1561;42.666;23.392;2023-03-14T00:11:19;95435.06;;;3.57;75.03
3102;BME280;1561;42.666;23.392;2023-03-14T00:13:48;95427.59;;;3.38;75.93
3102;BME280;1561;42.666;23.392;2023-03-14T00:16:15;95427.38;;;3.43;76.44
3102;BME280;1561;42.666;23.392;2023-03-14T00:18:44;95418.59;;;3.33;77.63
3102;BME280;1561;42.666;23.392;2023-03-14T00:21:11;95386.25;;;3.07;78.63
3102;BME280;1561;42.666;23.392;2023-03-14T00:23:39;95406.81;;;3.33;79.15
3102;BME280;1561;42.666;23.392;2023-03-14T00:26:09;95369.28;;;3.10;80.44
3102;BME280;1561;42.666;23.392;2023-03-14T00:28:36;95390.69;;;3.36;79.45
3102;BME280;1561;42.666;23.392;2023-03-14T00:31:04;95387.78;;;3.43;78.16
3102;BME280;1561;42.666;23.392;2023-03-14T00:33:31;95369.16;;;3.29;78.19
3102;BME280;1561;42.666;23.392;2023-03-14T00:36:02;95382.44;;;3.49;77.75
3102;BME280;1561;42.666;23.392;2023-03-14T00:38:30;95388.22;;;3.34;80.28
3102;BME280;1561;42.666;23.392;2023-03-14T00:40:58;95369.25;;;3.27;82.67
3102;BME280;1561;42.666;23.392;2023-03-14T00:43:25;95408.81;;;3.27;83.19
3102;BME280;1561;42.666;23.392;2023-03-14T00:45:52;95383.06;;;3.20;83.61
3102;BME280;1561;42.666;23.392;2023-03-14T00:48:19;95382.91;;;3.23;84.82
3102;BME280;1561;42.666;23.392;2023-03-14T00:50:48;95359.84;;;2.97;84.72
3102;BME280;1561;42.666;23.392;2023-03-14T00:53:16;95370.97;;;3.10;83.46
3102;BME280;1561;42.666;23.392;2023-03-14T00:55:45;95373.22;;;2.99;84.58
3102;BME280;1561;42.666;23.392;2023-03-14T00:58:13;95373.56;;;3.08;84.87
3102;BME280;1561;42.666;23.392;2023-03-14T01:00:41;95366.22;;;3.04;85.43
3102;BME280;1561;42.666;23.392;2023-03-14T01:03:10;95373.88;;;3.02;86.82
3102;BME280;1561;42.666;23.392;2023-03-14T01:05:38;95374.69;;;3.03;86.87
3102;BME280;1561;42.666;23.392;2023-03-14T01:08:06;95363.13;;;2.99;88.26
3102;BME280;1561;42.666;23.392;2023-03-14T01:10:38;95356.53;;;2.96;87.47
3102;BME280;1561;42.666;23.392;2023-03-14T01:13:05;95351.31;;;2.99;85.69
3102;BME280;1561;42.666;23.392;2023-03-14T01:15:32;95352.22;;;2.98;85.90
3102;BME280;1561;42.666;23.392;2023-03-14T01:17:58;95362.66;;;3.08;85.27
3102;BME280;1561;42.666;23.392;2023-03-14T01:20:25;95361.53;;;3.13;82.61
3102;BME280;1561;42.666;23.392;2023-03-14T01:22:53;95354.06;;;3.12;83.23
3102;BME280;1561;42.666;23.392;2023-03-14T01:25:19;95336.09;;;3.01;84.16
3102;BME280;1561;42.666;23.392;2023-03-14T01:27:48;95329.72;;;2.94;84.67
3102;BME280;1561;42.666;23.392;2023-03-14T01:30:15;95332.91;;;2.97;86.29
3102;BME280;1561;42.666;23.392;2023-03-14T01:32:42;95341.66;;;2.90;86.53
3102;BME280;1561;42.666;23.392;2023-03-14T01:35:10;95336.16;;;2.99;86.87
3102;BME280;1561;42.666;23.392;2023-03-14T01:37:37;95297.94;;;2.74;86.81
3102;BME280;1561;42.666;23.392;2023-03-14T01:40:10;95327.56;;;2.86;89.70
3102;BME280;1561;42.666;23.392;2023-03-14T01:42:37;95332.69;;;2.85;88.86
3102;BME280;1561;42.666;23.392;2023-03-14T01:47:47;95325.16;;;2.68;92.84
3102;BME280;1561;42.666;23.392;2023-03-14T01:50:15;95322.19;;;2.77;92.95
3102;BME280;1561;42.666;23.392;2023-03-14T01:52:44;95321.81;;;2.67;96.37
3102;BME280;1561;42.666;23.392;2023-03-14T01:55:16;95317.66;;;2.49;98.28
3102;BME280;1561;42.666;23.392;2023-03-14T01:57:46;95309.94;;;2.35;100.00
3102;BME280;1561;42.666;23.392;2023-03-14T02:00:19;95307.47;;;2.34;100.00
3102;BME280;1561;42.666;23.392;2023-03-14T02:02:48;95313.09;;;2.22;100.00
3102;BME280;1561;42.666;23.392;2023-03-14T02:05:18;95315.84;;;2.17;100.00
3102;BME280;1561;42.666;23.392;2023-03-14T02:07:49;95308.47;;;2.13;100.00
3102;BME280;1561;42.666;23.392;2023-03-14T02:10:18;95316.09;;;2.47;100.00
3102;BME280;1561;42.666;23.392;2023-03-14T02:12:48;95317.25;;;2.40;100.00
3102;BME280;1561;42.666;23.392;2023-03-14T02:15:18;95309.25;;;2.15;100.00
3102;BME280;1561;42.666;23.392;2023-03-14T02:17:46;95310.09;;;1.97;100.00
3102;BME280;1561;42.666;23.392;2023-03-14T02:20:34;95299.38;;;1.92;100.00
3102;BME280;1561;42.666;23.392;2023-03-14T02:23:05;95305.06;;;1.78;100.00
3102;BME280;1561;42.666;23.392;2023-03-14T02:25:39;95305.69;;;1.65;100.00
3102;BME280;1561;42.666;23.392;2023-03-14T02:28:11;95306.63;;;1.62;100.00
3102;BME280;1561;42.666;23.392;2023-03-14T02:30:38;95313.22;;;1.65;100.00
3102;BME280;1561;42.666;23.392;2023-03-14T02:33:07;95313.41;;;1.79;100.00
3102;BME280;1561;42.666;23.392;2023-03-14T02:35:37;95306.09;;;1.74;100.00
3102;BME280;1561;42.666;23.392;2023-03-14T02:38:13;95304.34;;;1.58;100.00
3102;BME280;1561;42.666;23.392;2023-03-14T02:40:43;95305.47;;;1.51;100.00
3102;BME280;1561;42.666;23.392;2023-03-14T02:43:13;95302.28;;;1.47;100.00
3102;BME280;1561;42.666;23.392;2023-03-14T02:45:44;95303.31;;;1.43;100.00
3102;BME280;1561;42.666;23.392;2023-03-14T02:48:14;95292.50;;;1.23;100.00
3102;BME280;1561;42.666;23.392;2023-03-14T02:50:43;95315.44;;;1.54;100.00
3102;BME280;1561;42.666;23.392;2023-03-14T02:53:14;95316.94;;;1.58;100.00
3102;BME280;1561;42.666;23.392;2023-03-14T02:55:45;95319.16;;;1.64;100.00
3102;BME280;1561;42.666;23.392;2023-03-14T02:58:13;95311.19;;;1.54;100.00
3102;BME280;1561;42.666;23.392;2023-03-14T03:00:40;95324.13;;;1.65;100.00
3102;BME280;1561;42.666;23.392;2023-03-14T03:03:07;95324.00;;;1.68;100.00
3102;BME280;1561;42.666;23.392;2023-03-14T03:05:48;95302.22;;;1.67;100.00
3102;BME280;1561;42.666;23.392;2023-03-14T03:08:28;95049.59;;;0.08;100.00
3102;BME280;1561;42.666;23.392;2023-03-14T03:10:57;95321.13;;;1.76;100.00
3102;BME280;1561;42.666;23.392;2023-03-14T03:13:26;95258.22;;;1.39;100.00
3102;BME280;1561;42.666;23.392;2023-03-14T03:15:53;95310.91;;;1.79;100.00
3102;BME280;1561;42.666;23.392;2023-03-14T03:18:23;95317.00;;;1.75;100.00
3102;BME280;1561;42.666;23.392;2023-03-14T03:21:26;95319.22;;;1.62;100.00
3102;BME280;1561;42.666;23.392;2023-03-14T03:23:53;95313.81;;;1.53;100.00
3102;BME280;1561;42.666;23.392;2023-03-14T03:26:20;95291.88;;;1.55;100.00
3102;BME280;1561;42.666;23.392;2023-03-14T03:28:50;95309.38;;;1.58;100.00
3102;BME280;1561;42.666;23.392;2023-03-14T03:31:17;95298.94;;;1.47;100.00
3102;BME280;1561;42.666;23.392;2023-03-14T03:33:47;95329.16;;;1.47;100.00
3102;BME280;1561;42.666;23.392;2023-03-14T03:36:14;95312.22;;;1.32;100.00
3102;BME280;1561;42.666;23.392;2023-03-14T03:38:55;95097.63;;;0.00;100.00
3102;BME280;1561;42.666;23.392;2023-03-14T03:41:22;95310.78;;;1.26;100.00
3102;BME280;1561;42.666;23.392;2023-03-14T03:43:51;95299.25;;;1.02;100.00
3102;BME280;1561;42.666;23.392;2023-03-14T03:46:19;95143.28;;;0.28;100.00
3102;BME280;1561;42.666;23.392;2023-03-14T03:48:46;95313.78;;;1.34;100.00
3102;BME280;1561;42.666;23.392;2023-03-14T03:51:13;95321.34;;;1.34;100.00
3102;BME280;1561;42.666;23.392;2023-03-14T03:53:41;95322.00;;;1.38;100.00
3102;BME280;1561;42.666;23.392;2023-03-14T03:56:09;95325.88;;;1.26;100.00
3102;BME280;1561;42.666;23.392;2023-03-14T03:58:36;95325.81;;;1.08;100.00
3102;BME280;1561;42.666;23.392;2023-03-14T04:01:06;95334.47;;;1.02;100.00
3102;BME280;1561;42.666;23.392;2023-03-14T04:03:34;95333.09;;;0.95;100.00
3102;BME280;1561;42.666;23.392;2023-03-14T04:06:06;95324.03;;;0.91;100.00
3102;BME280;1561;42.666;23.392;2023-03-14T04:08:33;95324.03;;;0.91;100.00
3102;BME280;1561;42.666;23.392;2023-03-14T04:11:03;95327.59;;;0.86;100.00
3102;BME280;1561;42.666;23.392;2023-03-14T04:13:29;95326.25;;;0.79;100.00
3102;BME280;1561;42.666;23.392;2023-03-14T04:15:57;95322.78;;;0.81;100.00
3102;BME280;1561;42.666;23.392;2023-03-14T04:18:25;95315.56;;;0.74;100.00
3102;BME280;1561;42.666;23.392;2023-03-14T04:20:53;95317.00;;;0.79;100.00
3102;BME280;1561;42.666;23.392;2023-03-14T04:23:21;95309.59;;;0.76;100.00
3102;BME280;1561;42.666;23.392;2023-03-14T04:25:49;95308.88;;;0.93;100.00
3102;BME280;1561;42.666;23.392;2023-03-14T04:28:22;95303.34;;;1.05;100.00
3102;BME280;1561;42.666;23.392;2023-03-14T04:30:49;95298.22;;;0.88;100.00
3102;BME280;1561;42.666;23.392;2023-03-14T04:33:16;95295.06;;;0.83;100.00
3102;BME280;1561;42.666;23.392;2023-03-14T04:35:46;95279.44;;;0.56;100.00
3102;BME280;1561;42.666;23.392;2023-03-14T04:38:13;95277.91;;;0.52;100.00
3102;BME280;1561;42.666;23.392;2023-03-14T04:40:41;95277.53;;;0.61;100.00
3102;BME280;1561;42.666;23.392;2023-03-14T04:43:08;95305.63;;;0.71;100.00
3102;BME280;1561;42.666;23.392;2023-03-14T04:45:35;95277.03;;;0.73;100.00
3102;BME280;1561;42.666;23.392;2023-03-14T04:48:03;95282.31;;;0.67;100.00
3102;BME280;1561;42.666;23.392;2023-03-14T04:50:30;95288.22;;;0.86;100.00
3102;BME280;1561;42.666;23.392;2023-03-14T04:53:00;95278.19;;;1.23;100.00
3102;BME280;1561;42.666;23.392;2023-03-14T04:55:27;95278.56;;;1.88;100.00
3102;BME280;1561;42.666;23.392;2023-03-14T04:57:57;95260.47;;;2.67;100.00
3102;BME280;1561;42.666;23.392;2023-03-14T05:00:24;95259.53;;;3.17;100.00
3102;BME280;1561;42.666;23.392;2023-03-14T05:02:51;95245.00;;;2.90;100.00
3102;BME280;1561;42.666;23.392;2023-03-14T05:05:18;95262.66;;;2.90;100.00
3102;BME280;1561;42.666;23.392;2023-03-14T05:07:47;95269.63;;;2.85;100.00
3102;BME280;1561;42.666;23.392;2023-03-14T05:10:15;95276.03;;;2.58;100.00
3102;BME280;1561;42.666;23.392;2023-03-14T05:12:50;95276.03;;;2.58;100.00
3102;BME280;1561;42.666;23.392;2023-03-14T05:15:17;95265.34;;;3.19;100.00
3102;BME280;1561;42.666;23.392;2023-03-14T05:17:44;95264.09;;;4.19;100.00
3102;BME280;1561;42.666;23.392;2023-03-14T05:20:12;95266.09;;;5.29;96.92
3102;BME280;1561;42.666;23.392;2023-03-14T05:22:39;95268.63;;;5.98;80.66
3102;BME280;1561;42.666;23.392;2023-03-14T05:25:06;95264.47;;;6.62;78.32
3102;BME280;1561;42.666;23.392;2023-03-14T05:27:35;95264.47;;;6.62;71.11
3102;BME280;1561;42.666;23.392;2023-03-14T05:30:02;95260.97;;;7.40;69.91
3102;BME280;1561;42.666;23.392;2023-03-14T05:32:29;95255.50;;;7.08;67.22
3102;BME280;1561;42.666;23.392;2023-03-14T05:34:56;95253.84;;;7.20;66.99
3102;BME280;1561;42.666;23.392;2023-03-14T05:37:24;95248.72;;;7.93;65.38
3102;BME280;1561;42.666;23.392;2023-03-14T05:39:51;95246.75;;;8.67;60.75
3102;BME280;1561;42.666;23.392;2023-03-14T05:42:18;95247.59;;;7.97;62.29
3102;BME280;1561;42.666;23.392;2023-03-14T05:44:47;95255.22;;;7.61;62.30
3102;BME280;1561;42.666;23.392;2023-03-14T05:47:14;95251.84;;;7.73;63.39
3102;BME280;1561;42.666;23.392;2023-03-14T05:49:41;95252.63;;;7.86;61.06
3102;BME280;1561;42.666;23.392;2023-03-14T05:52:08;95239.69;;;7.89;61.02
3102;BME280;1561;42.666;23.392;2023-03-14T05:54:36;95257.69;;;8.22;60.16
3102;BME280;1561;42.666;23.392;2023-03-14T05:57:03;95253.44;;;7.13;61.35
3102;BME280;1561;42.666;23.392;2023-03-14T05:59:30;95242.00;;;8.28;59.46
3102;BME280;1561;42.666;23.392;2023-03-14T06:01:58;95253.03;;;7.80;60.75
3102;BME280;1561;42.666;23.392;2023-03-14T06:04:27;95257.81;;;7.85;59.63
3102;BME280;1561;42.666;23.392;2023-03-14T06:07:03;95256.81;;;7.75;61.30
3102;BME280;1561;42.666;23.392;2023-03-14T06:09:30;95251.50;;;7.42;61.58
3102;BME280;1561;42.666;23.392;2023-03-14T06:11:58;95259.97;;;7.78;61.61
3102;BME280;1561;42.666;23.392;2023-03-14T06:17:41;95253.94;;;9.74;54.99
3102;BME280;1561;42.666;23.392;2023-03-14T06:23:36;95247.91;;;10.29;52.55
3102;BME280;1561;42.666;23.392;2023-03-14T06:26:04;95245.25;;;10.82;51.71
3102;BME280;1561;42.666;23.392;2023-03-14T06:28:31;95250.97;;;10.01;53.31
3102;BME280;1561;42.666;23.392;2023-03-14T06:30:58;95236.31;;;10.56;51.13
3102;BME280;1561;42.666;23.392;2023-03-14T06:33:52;95244.13;;;12.92;46.65
3102;BME280;1561;42.666;23.392;2023-03-14T06:39:40;95257.91;;;11.04;48.59
3102;BME280;1561;42.666;23.392;2023-03-14T06:42:09;95245.47;;;12.96;45.91
3102;BME280;1561;42.666;23.392;2023-03-14T06:44:36;95233.19;;;13.55;44.37
3102;BME280;1561;42.666;23.392;2023-03-14T06:53:30;95229.22;;;15.19;39.56
3102;BME280;1561;42.666;23.392;2023-03-14T06:55:57;95226.34;;;15.22;39.44
3102;BME280;1561;42.666;23.392;2023-03-14T06:58:25;95226.06;;;14.30;40.89
3102;BME280;1561;42.666;23.392;2023-03-14T07:00:52;95221.94;;;13.65;41.14
3102;BME280;1561;42.666;23.392;2023-03-14T07:03:20;95174.03;;;14.01;40.92
3102;BME280;1561;42.666;23.392;2023-03-14T07:05:47;95212.03;;;14.77;38.64
3102;BME280;1561;42.666;23.392;2023-03-14T07:08:17;95212.81;;;14.95;38.99
3102;BME280;1561;42.666;23.392;2023-03-14T07:10:46;95205.03;;;14.87;38.56
3102;BME280;1561;42.666;23.392;2023-03-14T07:13:13;95197.81;;;15.67;37.58
3102;BME280;1561;42.666;23.392;2023-03-14T07:15:40;95191.47;;;16.77;35.86
3102;BME280;1561;42.666;23.392;2023-03-14T07:18:10;95194.53;;;14.80;37.90
3102;BME280;1561;42.666;23.392;2023-03-14T07:20:36;95202.06;;;12.37;41.20
3102;BME280;1561;42.666;23.392;2023-03-14T07:23:03;95195.09;;;11.41;43.23
3102;BME280;1561;42.666;23.392;2023-03-14T07:25:30;95210.16;;;11.65;44.12
3102;BME280;1561;42.666;23.392;2023-03-14T07:27:58;95210.91;;;11.26;44.85
3102;BME280;1561;42.666;23.392;2023-03-14T07:30:26;95206.81;;;12.42;42.99
3102;BME280;1561;42.666;23.392;2023-03-14T07:32:53;95197.94;;;13.84;41.07
3102;BME280;1561;42.666;23.392;2023-03-14T07:35:21;95196.22;;;12.92;41.44
3102;BME280;1561;42.666;23.392;2023-03-14T07:37:48;95192.25;;;14.07;40.96
3102;BME280;1561;42.666;23.392;2023-03-14T07:40:15;95009.22;;;13.18;38.89
3102;BME280;1561;42.666;23.392;2023-03-14T07:42:44;95179.63;;;15.09;37.85
3102;BME280;1561;42.666;23.392;2023-03-14T07:45:13;95180.13;;;15.72;36.12
3102;BME280;1561;42.666;23.392;2023-03-14T07:47:40;95165.56;;;17.49;34.13
3102;BME280;1561;42.666;23.392;2023-03-14T07:50:09;95161.47;;;17.08;33.65
3102;BME280;1561;42.666;23.392;2023-03-14T07:52:36;95172.75;;;14.92;37.36
3102;BME280;1561;42.666;23.392;2023-03-14T07:55:05;95177.88;;;14.14;38.71
3102;BME280;1561;42.666;23.392;2023-03-14T07:57:32;95165.94;;;16.25;35.49
3102;BME280;1561;42.666;23.392;2023-03-14T07:59:58;95155.00;;;16.96;34.27
3102;BME280;1561;42.666;23.392;2023-03-14T08:02:32;95147.16;;;16.65;33.53
3102;BME280;1561;42.666;23.392;2023-03-14T08:04:59;95081.66;;;14.26;36.69
3102;BME280;1561;42.666;23.392;2023-03-14T08:07:27;95163.72;;;16.79;34.75
3102;BME280;1561;42.666;23.392;2023-03-14T08:09:57;95169.50;;;15.08;35.46
3102;BME280;1561;42.666;23.392;2023-03-14T08:12:25;95162.38;;;15.27;35.18
3102;BME280;1561;42.666;23.392;2023-03-14T08:14:56;95163.91;;;15.38;35.74
3102;BME280;1561;42.666;23.392;2023-03-14T08:17:25;95162.91;;;16.78;33.17
3102;BME280;1561;42.666;23.392;2023-03-14T08:19:53;95165.69;;;14.69;35.41
3102;BME280;1561;42.666;23.392;2023-03-14T08:22:20;95157.84;;;14.53;36.19
3102;BME280;1561;42.666;23.392;2023-03-14T08:24:47;95159.69;;;16.60;34.24
3102;BME280;1561;42.666;23.392;2023-03-14T08:27:14;95156.75;;;17.11;33.32
3102;BME280;1561;42.666;23.392;2023-03-14T08:29:41;95076.50;;;16.82;33.18
3102;BME280;1561;42.666;23.392;2023-03-14T08:32:09;95152.22;;;18.59;31.43
3102;BME280;1561;42.666;23.392;2023-03-14T08:34:36;95143.16;;;19.15;30.75
3102;BME280;1561;42.666;23.392;2023-03-14T08:37:05;95140.31;;;17.04;33.14
3102;BME280;1561;42.666;23.392;2023-03-14T08:39:33;95146.13;;;16.98;32.98
3102;BME280;1561;42.666;23.392;2023-03-14T08:41:59;95139.38;;;17.60;32.53
3102;BME280;1561;42.666;23.392;2023-03-14T08:44:26;95123.28;;;19.44;29.85
3102;BME280;1561;42.666;23.392;2023-03-14T08:46:55;95122.28;;;19.74;29.17
3102;BME280;1561;42.666;23.392;2023-03-14T08:49:24;95119.00;;;19.37;29.03
3102;BME280;1561;42.666;23.392;2023-03-14T08:51:51;95126.81;;;17.87;30.46
3102;BME280;1561;42.666;23.392;2023-03-14T08:54:23;95106.31;;;19.27;29.00
3102;BME280;1561;42.666;23.392;2023-03-14T08:56:50;95106.13;;;19.93;28.45
3102;BME280;1561;42.666;23.392;2023-03-14T08:59:19;95100.16;;;20.56;27.73
3102;BME280;1561;42.666;23.392;2023-03-14T09:01:45;95106.41;;;18.82;28.93
3102;BME280;1561;42.666;23.392;2023-03-14T09:04:15;95099.66;;;17.61;30.78
3102;BME280;1561;42.666;23.392;2023-03-14T09:06:43;95089.81;;;18.77;29.94
3102;BME280;1561;42.666;23.392;2023-03-14T09:09:13;95089.91;;;17.32;30.06
3102;BME280;1561;42.666;23.392;2023-03-14T09:11:44;95091.78;;;18.89;28.12
3102;BME280;1561;42.666;23.392;2023-03-14T09:14:11;95088.63;;;17.28;30.10
3102;BME280;1561;42.666;23.392;2023-03-14T09:16:39;95079.22;;;18.04;29.63
3102;BME280;1561;42.666;23.392;2023-03-14T09:19:05;95070.19;;;18.00;30.20
3102;BME280;1561;42.666;23.392;2023-03-14T09:21:32;95066.56;;;17.18;31.53
3102;BME280;1561;42.666;23.392;2023-03-14T09:23:59;95057.63;;;18.42;30.31
3102;BME280;1561;42.666;23.392;2023-03-14T09:26:27;95057.88;;;17.80;30.71
3102;BME280;1561;42.666;23.392;2023-03-14T09:28:56;95046.03;;;18.53;30.26
3102;BME280;1561;42.666;23.392;2023-03-14T09:31:24;95051.97;;;17.33;31.21
3102;BME280;1561;42.666;23.392;2023-03-14T09:33:56;95044.88;;;17.35;32.08
3102;BME280;1561;42.666;23.392;2023-03-14T09:36:23;95031.97;;;17.65;31.58
3102;BME280;1561;42.666;23.392;2023-03-14T09:38:52;95032.97;;;18.09;31.53
3102;BME280;1561;42.666;23.392;2023-03-14T09:41:24;95026.06;;;18.61;30.65
3102;BME280;1561;42.666;23.392;2023-03-14T09:44:02;95013.28;;;20.24;28.78
3102;BME280;1561;42.666;23.392;2023-03-14T09:46:34;95016.88;;;19.02;30.53
3102;BME280;1561;42.666;23.392;2023-03-14T09:49:02;95012.25;;;18.98;30.89
3102;BME280;1561;42.666;23.392;2023-03-14T09:51:31;95002.44;;;17.60;32.29
3102;BME280;1561;42.666;23.392;2023-03-14T09:53:58;95006.28;;;18.31;32.34
3102;BME280;1561;42.666;23.392;2023-03-14T09:56:28;94997.47;;;17.81;32.92
3102;BME280;1561;42.666;23.392;2023-03-14T09:59:05;94990.19;;;20.08;30.74
3102;BME280;1561;42.666;23.392;2023-03-14T10:01:35;94993.16;;;17.12;34.14
3102;BME280;1561;42.666;23.392;2023-03-14T10:04:10;94958.50;;;17.45;33.36
3102;BME280;1561;42.666;23.392;2023-03-14T10:06:40;94973.88;;;17.84;33.14
3102;BME280;1561;42.666;23.392;2023-03-14T10:09:11;94966.34;;;19.35;31.61
3102;BME280;1561;42.666;23.392;2023-03-14T10:11:45;94962.66;;;19.30;31.67
3102;BME280;1561;42.666;23.392;2023-03-14T10:14:29;94942.47;;;18.46;32.42
3102;BME280;1561;42.666;23.392;2023-03-14T10:17:05;94948.78;;;18.44;32.43
3102;BME280;1561;42.666;23.392;2023-03-14T10:19:33;94946.66;;;18.76;31.99
3102;BME280;1561;42.666;23.392;2023-03-14T10:22:03;94942.63;;;18.59;32.00
3102;BME280;1561;42.666;23.392;2023-03-14T10:24:32;94934.41;;;18.41;32.83
3102;BME280;1561;42.666;23.392;2023-03-14T10:27:00;94923.28;;;19.55;32.04
3102;BME280;1561;42.666;23.392;2023-03-14T10:29:29;94912.13;;;19.55;31.04
3102;BME280;1561;42.666;23.392;2023-03-14T10:32:04;94918.88;;;19.35;31.58
3102;BME280;1561;42.666;23.392;2023-03-14T10:34:34;94909.53;;;19.19;31.58
3102;BME280;1561;42.666;23.392;2023-03-14T10:37:06;94888.16;;;18.96;31.76
3102;BME280;1561;42.666;23.392;2023-03-14T10:39:41;94890.28;;;20.46;30.19
3102;BME280;1561;42.666;23.392;2023-03-14T10:42:16;94855.78;;;18.36;32.32
3102;BME280;1561;42.666;23.392;2023-03-14T10:44:46;94881.75;;;18.92;32.07
3102;BME280;1561;42.666;23.392;2023-03-14T10:47:19;94873.41;;;18.47;33.07
3102;BME280;1561;42.666;23.392;2023-03-14T10:50:26;94871.38;;;19.49;31.23
3102;BME280;1561;42.666;23.392;2023-03-14T10:53:12;94851.03;;;20.22;30.25
3102;BME280;1561;42.666;23.392;2023-03-14T10:56:05;94839.00;;;19.38;30.98
3102;BME280;1561;42.666;23.392;2023-03-14T10:59:15;94835.13;;;20.04;30.37
3102;BME280;1561;42.666;23.392;2023-03-14T11:01:47;94823.78;;;19.77;31.04
3102;BME280;1561;42.666;23.392;2023-03-14T11:04:28;94696.38;;;19.46;30.90
3102;BME280;1561;42.666;23.392;2023-03-14T11:07:24;94807.72;;;21.29;28.98
3102;BME280;1561;42.666;23.392;2023-03-14T11:10:14;94809.13;;;19.63;30.72
3102;BME280;1561;42.666;23.392;2023-03-14T11:12:54;94798.38;;;20.75;29.68
3102;BME280;1561;42.666;23.392;2023-03-14T11:15:30;94803.09;;;20.11;30.38
3102;BME280;1561;42.666;23.392;2023-03-14T11:18:28;94770.97;;;18.67;31.62
3102;BME280;1561;42.666;23.392;2023-03-14T11:21:08;94776.56;;;19.82;30.37
3102;BME280;1561;42.666;23.392;2023-03-14T11:23:42;94770.78;;;18.89;31.26
3102;BME280;1561;42.666;23.392;2023-03-14T11:26:27;94753.72;;;18.74;31.65
3102;BME280;1561;42.666;23.392;2023-03-14T11:28:58;94752.94;;;20.04;30.30
3102;BME280;1561;42.666;23.392;2023-03-14T11:31:35;94736.59;;;20.57;30.22
3102;BME280;1561;42.666;23.392;2023-03-14T11:34:13;94726.16;;;19.91;31.00
3102;BME280;1561;42.666;23.392;2023-03-14T11:36:46;94714.47;;;19.19;31.66
3102;BME280;1561;42.666;23.392;2023-03-14T11:39:17;94722.19;;;20.42;30.53
3102;BME280;1561;42.666;23.392;2023-03-14T11:41:47;94725.22;;;19.37;31.25
3102;BME280;1561;42.666;23.392;2023-03-14T11:44:18;94718.00;;;19.32;30.71
3102;BME280;1561;42.666;23.392;2023-03-14T11:46:50;94708.78;;;20.32;29.89
3102;BME280;1561;42.666;23.392;2023-03-14T11:49:27;94708.25;;;20.49;29.52
3102;BME280;1561;42.666;23.392;2023-03-14T11:52:03;94700.53;;;21.47;29.14
3102;BME280;1561;42.666;23.392;2023-03-14T11:54:37;94686.47;;;19.97;30.21
3102;BME280;1561;42.666;23.392;2023-03-14T11:57:12;94682.53;;;20.07;29.17
3102;BME280;1561;42.666;23.392;2023-03-14T11:59:46;94671.53;;;18.76;30.79
3102;BME280;1561;42.666;23.392;2023-03-14T12:02:21;94689.88;;;18.39;31.38
3102;BME280;1561;42.666;23.392;2023-03-14T12:05:14;94678.06;;;18.72;30.79
3102;BME280;1561;42.666;23.392;2023-03-14T12:08:00;94538.97;;;18.80;30.24
3102;BME280;1561;42.666;23.392;2023-03-14T12:10:36;94581.78;;;19.38;29.36
3102;BME280;1561;42.666;23.392;2023-03-14T12:13:07;94661.25;;;18.05;31.15
3102;BME280;1561;42.666;23.392;2023-03-14T12:15:40;94650.19;;;17.96;31.68
3102;BME280;1561;42.666;23.392;2023-03-14T12:18:20;94662.03;;;18.05;31.47
3102;BME280;1561;42.666;23.392;2023-03-14T12:20:53;94615.25;;;17.21;32.25
3102;BME280;1561;42.666;23.392;2023-03-14T12:23:20;94647.03;;;17.22;32.45
3102;BME280;1561;42.666;23.392;2023-03-14T12:26:08;94649.38;;;17.75;31.90
3102;BME280;1561;42.666;23.392;2023-03-14T12:28:43;94637.88;;;17.63;31.79
3102;BME280;1561;42.666;23.392;2023-03-14T12:31:36;94635.28;;;17.63;31.86
3102;BME280;1561;42.666;23.392;2023-03-14T12:34:04;94615.88;;;17.38;31.94
3102;BME280;1561;42.666;23.392;2023-03-14T12:37:09;94623.03;;;17.50;31.84
3102;BME280;1561;42.666;23.392;2023-03-14T12:39:47;94616.78;;;17.95;31.79
3102;BME280;1561;42.666;23.392;2023-03-14T12:42:34;94586.84;;;17.65;32.01
3102;BME280;1561;42.666;23.392;2023-03-14T12:45:26;94605.41;;;17.89;31.44
3102;BME280;1561;42.666;23.392;2023-03-14T12:47:56;94590.81;;;18.66;30.60
3102;BME280;1561;42.666;23.392;2023-03-14T12:50:34;94601.00;;;18.04;31.62
3102;BME280;1561;42.666;23.392;2023-03-14T12:53:24;94589.22;;;17.66;31.73
3102;BME280;1561;42.666;23.392;2023-03-14T12:55:59;94549.66;;;17.16;32.17
3102;BME280;1561;42.666;23.392;2023-03-14T12:58:34;94588.81;;;17.48;31.63
3102;BME280;1561;42.666;23.392;2023-03-14T13:01:04;94594.59;;;17.36;31.81
3102;BME280;1561;42.666;23.392;2023-03-14T13:03:45;94575.72;;;17.64;31.78
3102;BME280;1561;42.666;23.392;2023-03-14T13:06:46;94565.59;;;17.48;31.50
3102;BME280;1561;42.666;23.392;2023-03-14T13:09:36;94558.44;;;17.65;31.52
3102;BME280;1561;42.666;23.392;2023-03-14T13:12:22;94535.06;;;17.23;31.27
3102;BME280;1561;42.666;23.392;2023-03-14T13:14:51;94553.44;;;17.63;31.22
3102;BME280;1561;42.666;23.392;2023-03-14T13:17:24;94548.78;;;17.73;31.46
3102;BME280;1561;42.666;23.392;2023-03-14T13:19:53;94554.97;;;17.58;31.19
3102;BME280;1561;42.666;23.392;2023-03-14T13:22:26;94559.53;;;17.77;31.11
3102;BME280;1561;42.666;23.392;2023-03-14T13:25:03;94544.16;;;17.69;30.87
3102;BME280;1561;42.666;23.392;2023-03-14T13:27:33;94532.88;;;17.55;31.31
3102;BME280;1561;42.666;23.392;2023-03-14T13:30:11;94527.41;;;17.29;31.25
3102;BME280;1561;42.666;23.392;2023-03-14T13:32:42;94514.91;;;17.33;31.40
3102;BME280;1561;42.666;23.392;2023-03-14T13:35:15;94527.41;;;17.00;32.20
3102;BME280;1561;42.666;23.392;2023-03-14T13:37:43;94512.91;;;17.28;31.42
3102;BME280;1561;42.666;23.392;2023-03-14T13:40:24;94508.91;;;16.97;31.85
3102;BME280;1561;42.666;23.392;2023-03-14T13:43:01;94471.28;;;16.88;32.02
3102;BME280;1561;42.666;23.392;2023-03-14T13:45:29;94499.09;;;17.21;31.66
3102;BME280;1561;42.666;23.392;2023-03-14T13:47:55;94383.72;;;16.65;31.97
3102;BME280;1561;42.666;23.392;2023-03-14T13:50:25;94484.94;;;17.17;31.46
3102;BME280;1561;42.666;23.392;2023-03-14T13:52:56;94478.03;;;16.89;31.75